createdAt,value
2024-02-16T00:01:56.678Z,99392.40
2024-02-16T00:04:50.682Z,99390.60
2024-02-16T00:07:45.024Z,99392.60
2024-02-16T00:10:41.740Z,99399.20
2024-02-16T00:13:35.342Z,99403.00
2024-02-16T00:16:28.986Z,99401.20
2024-02-16T00:19:23.542Z,99403.80
2024-02-16T00:22:17.762Z,99398.60
2024-02-16T00:25:14.036Z,99400.40
2024-02-16T00:28:08.636Z,99395.40
2024-02-16T00:31:01.858Z,99392.00
2024-02-16T00:33:55.428Z,99394.60
2024-02-16T00:36:49.120Z,99393.60
2024-02-16T00:39:43.246Z,99396.00
2024-02-16T00:42:37.408Z,99392.20
2024-02-16T00:45:31.050Z,99393.20
2024-02-16T00:48:25.593Z,99393.40
2024-02-16T00:51:19.948Z,99393.80
2024-02-16T00:54:14.081Z,99388.60
2024-02-16T00:57:08.197Z,99392.60
2024-02-16T01:00:01.616Z,99389.60
2024-02-16T01:02:56.114Z,99383.00
2024-02-16T01:05:49.953Z,99379.40
2024-02-16T01:08:43.967Z,99372.60
2024-02-16T01:11:37.661Z,99372.40
2024-02-16T01:14:31.378Z,99371.80
2024-02-16T01:17:24.930Z,99370.00
2024-02-16T01:20:19.179Z,99367.40
2024-02-16T01:23:12.885Z,99366.80
2024-02-16T01:26:07.273Z,99369.40
2024-02-16T01:29:00.786Z,99365.60
2024-02-16T01:31:54.342Z,99363.80
2024-02-16T01:34:50.993Z,99364.60
2024-02-16T01:37:45.082Z,99366.80
2024-02-16T01:40:38.411Z,99364.40
2024-02-16T01:43:32.716Z,99363.80
2024-02-16T01:46:27.505Z,99359.60
2024-02-16T01:49:21.421Z,99356.20
2024-02-16T01:52:15.538Z,99357.80
2024-02-16T01:55:11.563Z,99357.40
2024-02-16T01:58:06.778Z,99354.40
2024-02-16T02:01:00.281Z,99353.20
2024-02-16T02:03:53.867Z,99355.00
2024-02-16T02:06:47.447Z,99352.60
2024-02-16T02:09:41.164Z,99353.40
2024-02-16T02:12:35.401Z,99352.40
2024-02-16T02:15:29.288Z,99355.40
2024-02-16T02:18:23.634Z,99354.40
2024-02-16T02:21:19.288Z,99352.40
2024-02-16T02:24:13.329Z,99353.80
2024-02-16T02:27:07.576Z,99353.00
2024-02-16T02:30:01.337Z,99352.80
2024-02-16T02:32:55.670Z,99345.40
2024-02-16T02:35:49.987Z,99340.40
2024-02-16T02:38:45.766Z,99338.60
2024-02-16T02:41:39.752Z,99338.20
2024-02-16T02:44:33.743Z,99338.20
2024-02-16T02:47:27.559Z,99339.60
2024-02-16T02:50:22.000Z,99342.20
2024-02-16T02:53:15.596Z,99347.60
2024-02-16T02:56:10.727Z,99352.60
2024-02-16T02:59:05.823Z,99348.40
2024-02-16T03:01:59.519Z,99349.80
2024-02-16T03:04:53.191Z,99354.80
2024-02-16T03:07:47.008Z,99354.00
2024-02-16T03:10:40.598Z,99355.00
2024-02-16T03:13:35.588Z,99354.20
2024-02-16T03:16:30.090Z,99355.40
2024-02-16T03:19:24.049Z,99359.60
2024-02-16T03:22:17.846Z,99355.00
2024-02-16T03:25:12.702Z,99359.00
2024-02-16T03:28:07.116Z,99361.80
2024-02-16T03:31:00.853Z,99360.20
2024-02-16T03:33:55.701Z,99358.40
2024-02-16T03:36:49.818Z,99354.80
2024-02-16T03:39:43.450Z,99353.60
2024-02-16T03:42:37.708Z,99355.60
2024-02-16T03:45:31.360Z,99357.20
2024-02-16T03:48:25.553Z,99353.60
2024-02-16T03:51:19.196Z,99353.60
2024-02-16T03:54:12.829Z,99356.40
2024-02-16T03:57:10.446Z,99356.40
2024-02-16T04:00:06.966Z,99348.80
2024-02-16T04:03:06.190Z,99353.60
2024-02-16T04:06:00.979Z,99353.00
2024-02-16T04:08:55.025Z,99348.20
2024-02-16T04:11:50.780Z,99345.20
2024-02-16T04:14:46.133Z,99345.60
2024-02-16T04:17:40.370Z,99339.80
2024-02-16T04:20:34.902Z,99338.00
2024-02-16T04:23:28.440Z,99337.60
2024-02-16T04:26:22.411Z,99337.60
2024-02-16T04:29:16.120Z,99338.00
2024-02-16T04:32:11.296Z,99335.80
2024-02-16T04:35:05.568Z,99335.40
2024-02-16T04:37:59.434Z,99344.20
2024-02-16T04:40:53.562Z,99349.20
2024-02-16T04:43:47.154Z,99351.00
2024-02-16T04:46:41.016Z,99350.40
2024-02-16T04:49:35.170Z,99350.40
2024-02-16T04:52:30.980Z,99348.20
2024-02-16T04:55:25.256Z,99350.60
2024-02-16T04:58:18.733Z,99355.60
2024-02-16T05:01:12.495Z,99352.00
2024-02-16T05:04:08.017Z,99348.00
2024-02-16T05:07:01.922Z,99347.20
2024-02-16T05:09:59.732Z,99350.00
2024-02-16T05:12:53.679Z,99349.40
2024-02-16T05:15:48.854Z,99344.60
2024-02-16T05:18:42.696Z,99342.40
2024-02-16T05:21:36.620Z,99343.00
2024-02-16T05:24:30.204Z,99345.20
2024-02-16T05:27:23.976Z,99341.00
2024-02-16T05:30:18.488Z,99345.40
2024-02-16T05:33:12.054Z,99346.00
2024-02-16T05:36:06.246Z,99350.80
2024-02-16T05:39:11.031Z,99347.40
2024-02-16T05:42:05.464Z,99353.40
2024-02-16T05:44:59.416Z,99353.80
2024-02-16T05:47:53.982Z,99359.40
2024-02-16T05:50:49.134Z,99357.80
2024-02-16T05:53:42.940Z,99358.80
2024-02-16T05:56:38.301Z,99365.40
2024-02-16T05:59:32.099Z,99364.20
2024-02-16T06:02:27.140Z,99361.60
2024-02-16T06:05:21.847Z,99365.40
2024-02-16T06:08:16.705Z,99364.60
2024-02-16T06:11:14.066Z,99363.00
2024-02-16T06:14:07.741Z,99371.40
2024-02-16T06:17:01.521Z,99368.40
2024-02-16T06:19:55.288Z,99374.20
2024-02-16T06:22:49.374Z,99375.60
2024-02-16T06:25:43.316Z,99383.60
2024-02-16T06:28:37.131Z,99385.40
2024-02-16T06:31:31.476Z,99384.00
2024-02-16T06:34:25.140Z,99382.80
2024-02-16T06:37:18.910Z,99377.40
2024-02-16T06:40:14.520Z,99373.60
2024-02-16T06:43:08.384Z,99375.60
2024-02-16T06:46:01.735Z,99380.20
2024-02-16T06:48:57.865Z,99381.40
2024-02-16T06:51:51.789Z,99385.60
2024-02-16T06:54:45.558Z,99377.00
2024-02-16T06:57:38.921Z,99382.60
2024-02-16T07:00:33.101Z,99379.80
2024-02-16T07:03:26.904Z,99380.20
2024-02-16T07:06:20.548Z,99376.40
2024-02-16T07:09:15.710Z,99373.60
2024-02-16T07:12:13.822Z,99376.00
2024-02-16T07:15:09.864Z,99379.20
2024-02-16T07:18:05.568Z,99381.20
2024-02-16T07:21:00.258Z,99377.80
2024-02-16T07:23:54.650Z,99384.20
2024-02-16T07:26:48.329Z,99380.00
2024-02-16T07:29:41.992Z,99384.80
2024-02-16T07:32:35.840Z,99381.20
2024-02-16T07:35:29.525Z,99385.40
2024-02-16T07:38:24.344Z,99382.00
2024-02-16T07:41:18.179Z,99385.40
2024-02-16T07:44:12.399Z,99388.20
2024-02-16T07:47:06.308Z,99389.00
2024-02-16T07:49:59.896Z,99388.60
2024-02-16T07:52:54.722Z,99384.80
2024-02-16T07:55:48.680Z,99394.40
2024-02-16T07:58:43.238Z,99390.00
2024-02-16T08:01:36.776Z,99386.40
2024-02-16T08:04:30.611Z,99386.60
2024-02-16T08:07:24.207Z,99386.20
2024-02-16T08:10:22.037Z,99391.20
2024-02-16T08:13:15.569Z,99392.40
2024-02-16T08:16:10.091Z,99390.40
2024-02-16T08:19:04.053Z,99389.20
2024-02-16T08:21:57.725Z,99391.80
2024-02-16T08:24:51.485Z,99389.40
2024-02-16T08:27:44.980Z,99389.60
2024-02-16T08:30:42.337Z,99398.20
2024-02-16T08:33:38.478Z,99397.60
2024-02-16T08:36:32.373Z,99392.00
2024-02-16T08:39:26.673Z,99394.40
2024-02-16T08:42:20.490Z,99395.60
2024-02-16T08:45:14.721Z,99398.60
2024-02-16T08:48:09.737Z,99402.20
2024-02-16T08:51:03.708Z,99397.60
2024-02-16T08:53:57.665Z,99401.80
2024-02-16T08:56:52.000Z,99402.80
2024-02-16T08:59:46.885Z,99396.40
2024-02-16T09:02:40.182Z,99396.80
2024-02-16T09:05:34.378Z,99397.60
2024-02-16T09:08:30.259Z,99393.60
2024-02-16T09:11:24.559Z,99392.20
2024-02-16T09:14:17.850Z,99392.00
2024-02-16T09:17:11.640Z,99395.20
2024-02-16T09:20:09.710Z,99396.80
2024-02-16T09:23:04.838Z,99394.20
2024-02-16T09:25:58.505Z,99400.40
2024-02-16T09:28:52.460Z,99397.60
2024-02-16T09:31:45.930Z,99396.00
2024-02-16T09:34:41.691Z,99394.20
2024-02-16T09:37:36.917Z,99398.20
2024-02-16T09:40:30.821Z,99400.60
2024-02-16T09:43:32.345Z,99401.20
2024-02-16T09:46:27.565Z,99398.80
2024-02-16T09:49:28.964Z,99396.60
2024-02-16T09:52:29.342Z,99399.40
2024-02-16T09:55:23.552Z,99398.80
2024-02-16T09:58:18.801Z,99397.00
2024-02-16T10:01:22.728Z,99398.00
2024-02-16T10:04:16.924Z,99403.60
2024-02-16T10:07:13.108Z,99400.40
2024-02-16T10:10:16.837Z,99399.40
2024-02-16T10:13:12.825Z,99397.80
2024-02-16T10:16:15.210Z,99393.40
2024-02-16T10:19:14.578Z,99387.60
2024-02-16T10:22:15.161Z,99389.20
2024-02-16T10:25:15.528Z,99386.80
2024-02-16T10:28:12.641Z,99384.80
2024-02-16T10:31:06.761Z,99380.60
2024-02-16T10:34:07.009Z,99379.20
2024-02-16T10:37:03.644Z,99371.60
2024-02-16T10:39:59.158Z,99369.60
2024-02-16T10:42:55.163Z,99372.20
2024-02-16T10:45:53.815Z,99370.00
2024-02-16T10:48:47.712Z,99364.60
2024-02-16T10:51:47.418Z,99360.20
2024-02-16T10:54:43.138Z,99358.60
2024-02-16T10:57:41.173Z,99364.40
2024-02-16T11:00:36.005Z,99356.60
2024-02-16T11:03:30.942Z,99352.80
2024-02-16T11:06:26.312Z,99349.20
2024-02-16T11:09:32.277Z,99345.60
2024-02-16T11:12:26.985Z,99342.80
2024-02-16T11:15:29.424Z,99341.00
2024-02-16T11:18:23.493Z,99341.00
2024-02-16T11:21:20.295Z,99338.20
2024-02-16T11:24:17.537Z,99330.80
2024-02-16T11:27:12.347Z,99327.00
2024-02-16T11:30:09.032Z,99314.40
2024-02-16T11:33:02.463Z,99320.60
2024-02-16T11:36:02.110Z,99312.20
2024-02-16T11:38:56.262Z,99314.40
2024-02-16T11:41:49.931Z,99318.00
2024-02-16T11:44:52.741Z,99320.60
2024-02-16T11:47:47.033Z,99315.40
2024-02-16T11:50:40.914Z,99319.00
2024-02-16T11:53:35.527Z,99315.80
2024-02-16T11:56:31.139Z,99315.60
2024-02-16T11:59:26.429Z,99304.60
2024-02-16T12:02:26.834Z,99300.80
2024-02-16T12:05:20.942Z,99305.20
2024-02-16T12:08:14.745Z,99300.40
2024-02-16T12:11:09.927Z,99301.00
2024-02-16T12:14:03.782Z,99300.00
2024-02-16T12:17:01.266Z,99302.20
2024-02-16T12:19:56.697Z,99295.20
2024-02-16T12:22:50.634Z,99291.80
2024-02-16T12:25:44.182Z,99288.20
2024-02-16T12:28:38.528Z,99289.20
2024-02-16T12:31:33.854Z,99287.60
2024-02-16T12:34:27.843Z,99288.60
2024-02-16T12:37:21.610Z,99285.40
2024-02-16T12:40:16.076Z,99281.00
2024-02-16T12:43:12.381Z,99286.60
2024-02-16T12:46:06.202Z,99284.20
2024-02-16T12:48:59.888Z,99281.00
2024-02-16T12:51:53.629Z,99280.60
2024-02-16T12:54:48.000Z,99280.80
2024-02-16T12:57:41.989Z,99277.60
2024-02-16T13:00:35.906Z,99277.00
2024-02-16T13:03:29.507Z,99276.20
2024-02-16T13:06:26.845Z,99280.80
2024-02-16T13:09:22.467Z,99282.20
2024-02-16T13:12:17.464Z,99275.00
2024-02-16T13:15:23.028Z,99272.20
2024-02-16T13:18:22.156Z,99266.40
2024-02-16T13:21:21.444Z,99269.00
2024-02-16T13:24:14.881Z,99267.00
2024-02-16T13:27:10.071Z,99263.00
2024-02-16T13:30:03.928Z,99269.00
2024-02-16T13:32:57.517Z,99261.80
2024-02-16T13:35:51.469Z,99266.40
2024-02-16T13:38:45.476Z,99264.80
2024-02-16T13:41:39.538Z,99263.60
2024-02-16T13:44:33.130Z,99259.80
2024-02-16T13:47:27.818Z,99262.00
2024-02-16T13:50:21.717Z,99259.00
2024-02-16T13:53:18.640Z,99258.60
2024-02-16T13:56:15.234Z,99253.20
2024-02-16T13:59:09.310Z,99253.60
2024-02-16T14:02:03.563Z,99253.60
2024-02-16T14:04:57.829Z,99255.40
2024-02-16T14:07:58.208Z,99252.80
2024-02-16T14:10:54.567Z,99249.20
2024-02-16T14:13:48.390Z,99249.00
2024-02-16T14:16:42.478Z,99242.20
2024-02-16T14:19:38.936Z,99246.00
2024-02-16T14:22:32.569Z,99242.00
2024-02-16T14:25:27.002Z,99244.20
2024-02-16T14:28:20.264Z,99240.00
2024-02-16T14:31:15.410Z,99238.00
2024-02-16T14:34:10.327Z,99234.00
2024-02-16T14:37:05.522Z,99233.20
2024-02-16T14:40:00.444Z,99230.20
2024-02-16T14:42:54.028Z,99230.00
2024-02-16T14:45:47.604Z,99229.20
2024-02-16T14:48:41.984Z,99231.40
2024-02-16T14:51:35.457Z,99228.00
2024-02-16T14:54:29.107Z,99226.80
2024-02-16T14:57:26.200Z,99224.00
2024-02-16T15:00:21.915Z,99223.60
2024-02-16T15:03:15.687Z,99222.40
2024-02-16T15:06:09.971Z,99217.60
2024-02-16T15:09:04.582Z,99214.80
2024-02-16T15:11:58.406Z,99213.00
2024-02-16T15:14:52.205Z,99216.60
2024-02-16T15:17:45.680Z,99217.20
2024-02-16T15:20:40.044Z,99214.40
2024-02-16T15:23:34.496Z,99215.20
2024-02-16T15:26:27.734Z,99210.20
2024-02-16T15:29:21.396Z,99214.20
2024-02-16T15:32:14.973Z,99214.40
2024-02-16T15:35:09.401Z,99206.60
2024-02-16T15:38:04.347Z,99203.40
2024-02-16T15:40:57.817Z,99202.20
2024-02-16T15:43:51.548Z,99201.40
2024-02-16T15:46:45.656Z,99205.20
2024-02-16T15:49:39.560Z,99204.80
2024-02-16T15:52:33.239Z,99203.20
2024-02-16T15:55:26.781Z,99199.80
2024-02-16T15:58:20.312Z,99199.00
2024-02-16T16:01:14.021Z,99198.20
2024-02-16T16:04:08.280Z,99202.60
2024-02-16T16:07:02.060Z,99207.20
2024-02-16T16:09:58.920Z,99203.00
2024-02-16T16:12:52.380Z,99200.20
2024-02-16T16:15:47.357Z,99201.40
2024-02-16T16:18:41.191Z,99197.80
2024-02-16T16:21:34.751Z,99201.60
2024-02-16T16:24:28.647Z,99204.20
2024-02-16T16:27:23.804Z,99206.80
2024-02-16T16:30:20.202Z,99204.40
2024-02-16T16:33:14.134Z,99196.80
2024-02-16T16:36:14.667Z,99201.00
2024-02-16T16:39:08.607Z,99200.60
2024-02-16T16:42:02.897Z,99201.20
2024-02-16T16:44:57.186Z,99205.60
2024-02-16T16:47:50.842Z,99206.20
2024-02-16T16:50:44.953Z,99198.20
2024-02-16T16:53:38.949Z,99198.20
2024-02-16T16:56:32.954Z,99201.60
2024-02-16T16:59:26.342Z,99191.00
2024-02-16T17:02:19.571Z,99194.80
2024-02-16T17:05:13.688Z,99191.40
2024-02-16T17:08:09.154Z,99191.20
2024-02-16T17:11:06.415Z,99194.40
2024-02-16T17:14:00.858Z,99194.60
2024-02-16T17:16:55.056Z,99195.00
2024-02-16T17:19:49.314Z,99200.80
2024-02-16T17:22:43.077Z,99195.80
2024-02-16T17:25:37.988Z,99199.00
2024-02-16T17:28:34.065Z,99206.00
2024-02-16T17:31:28.374Z,99206.00
2024-02-16T17:34:22.293Z,99204.80
2024-02-16T17:37:16.410Z,99210.00
2024-02-16T17:40:16.698Z,99211.60
2024-02-16T17:43:10.440Z,99211.80
2024-02-16T17:46:05.438Z,99211.80
2024-02-16T17:48:59.039Z,99213.20
2024-02-16T17:51:54.065Z,99218.80
2024-02-16T17:54:47.676Z,99218.80
2024-02-16T17:57:42.602Z,99218.40
2024-02-16T18:00:37.114Z,99220.00
2024-02-16T18:03:31.153Z,99225.60
2024-02-16T18:06:24.993Z,99221.00
2024-02-16T18:09:18.455Z,99221.00
2024-02-16T18:12:15.941Z,99221.60
2024-02-16T18:15:14.006Z,99223.20
2024-02-16T18:18:08.611Z,99225.80
2024-02-16T18:21:02.558Z,99225.80
2024-02-16T18:23:56.897Z,99221.60
2024-02-16T18:26:53.171Z,99221.80
2024-02-16T18:29:46.999Z,99221.00
2024-02-16T18:32:40.837Z,99222.40
2024-02-16T18:35:35.437Z,99223.00
2024-02-16T18:38:29.383Z,99221.00
2024-02-16T18:41:23.020Z,99219.20
2024-02-16T18:44:18.223Z,99222.00
2024-02-16T18:47:18.009Z,99223.60
2024-02-16T18:50:14.630Z,99221.60
2024-02-16T18:53:09.560Z,99225.40
2024-02-16T18:56:04.679Z,99225.00
2024-02-16T18:58:59.109Z,99231.60
2024-02-16T19:01:54.789Z,99234.20
2024-02-16T19:04:48.989Z,99231.60
2024-02-16T19:07:43.259Z,99230.80
2024-02-16T19:10:38.938Z,99230.00
2024-02-16T19:13:33.325Z,99230.80
2024-02-16T19:16:28.105Z,99232.20
2024-02-16T19:19:22.098Z,99228.80
2024-02-16T19:22:15.996Z,99231.60
2024-02-16T19:25:12.124Z,99234.20
2024-02-16T19:28:06.332Z,99236.80
2024-02-16T19:31:00.347Z,99239.60
2024-02-16T19:33:55.570Z,99240.40
2024-02-16T19:36:54.195Z,99235.20
2024-02-16T19:39:48.308Z,99243.60
2024-02-16T19:42:42.463Z,99243.40
2024-02-16T19:45:36.327Z,99242.20
2024-02-16T19:48:34.018Z,99246.00
2024-02-16T19:51:28.769Z,99243.40
2024-02-16T19:54:23.319Z,99248.20
2024-02-16T19:57:23.072Z,99250.60
2024-02-16T20:00:20.323Z,99249.00
2024-02-16T20:03:14.437Z,99254.20
2024-02-16T20:06:09.626Z,99251.60
2024-02-16T20:09:08.701Z,99255.00
2024-02-16T20:12:08.644Z,99262.20
2024-02-16T20:15:02.686Z,99255.20
2024-02-16T20:17:57.845Z,99252.60
2024-02-16T20:20:52.334Z,99256.60
2024-02-16T20:23:47.729Z,99257.60
2024-02-16T20:26:42.080Z,99255.80
2024-02-16T20:29:35.831Z,99251.20
2024-02-16T20:32:32.847Z,99251.00
2024-02-16T20:35:27.023Z,99252.40
2024-02-16T20:38:20.856Z,99251.40
2024-02-16T20:41:14.759Z,99256.60
2024-02-16T20:44:09.225Z,99258.20
2024-02-16T20:47:03.732Z,99260.00
2024-02-16T20:49:58.099Z,99260.40
2024-02-16T20:52:52.417Z,99261.20
2024-02-16T20:55:46.211Z,99257.40
2024-02-16T20:58:41.543Z,99253.20
2024-02-16T21:01:36.378Z,99258.20
2024-02-16T21:04:37.919Z,99262.60
2024-02-16T21:07:32.149Z,99260.00
2024-02-16T21:10:26.539Z,99261.40
2024-02-16T21:13:21.765Z,99264.80
2024-02-16T21:16:15.639Z,99263.20
2024-02-16T21:19:10.254Z,99263.20
2024-02-16T21:22:04.142Z,99265.60
2024-02-16T21:24:58.309Z,99262.60
2024-02-16T21:27:52.292Z,99257.80
2024-02-16T21:30:46.249Z,99257.80
2024-02-16T21:33:40.209Z,99257.80
2024-02-16T21:36:34.221Z,99257.20
2024-02-16T21:39:28.627Z,99258.40
2024-02-16T21:42:23.391Z,99261.40
2024-02-16T21:45:19.931Z,99257.00
2024-02-16T21:48:22.398Z,99256.20
2024-02-16T21:51:20.017Z,99254.60
2024-02-16T21:54:14.307Z,99257.20
2024-02-16T21:57:08.893Z,99261.40
2024-02-16T22:00:02.692Z,99260.80
2024-02-16T22:02:58.928Z,99256.00
2024-02-16T22:05:53.218Z,99253.00
2024-02-16T22:08:47.083Z,99255.20
2024-02-16T22:11:41.656Z,99252.20
2024-02-16T22:14:35.244Z,99252.80
2024-02-16T22:17:29.067Z,99251.20
2024-02-16T22:20:23.784Z,99258.80
2024-02-16T22:23:17.488Z,99258.00
2024-02-16T22:26:12.501Z,99256.40
2024-02-16T22:29:06.497Z,99255.60
2024-02-16T22:32:11.486Z,99255.80
2024-02-16T22:35:11.792Z,99261.20
2024-02-16T22:38:05.234Z,99261.80
2024-02-16T22:40:59.148Z,99265.20
2024-02-16T22:43:53.732Z,99268.00
2024-02-16T22:46:47.291Z,99268.00
2024-02-16T22:49:40.908Z,99272.60
2024-02-16T22:52:35.106Z,99275.20
2024-02-16T22:55:29.224Z,99274.00
2024-02-16T22:58:23.034Z,99272.00
2024-02-16T23:01:17.049Z,99272.80
2024-02-16T23:04:10.966Z,99272.40
2024-02-16T23:07:06.475Z,99271.80
2024-02-16T23:09:59.953Z,99273.80
2024-02-16T23:12:53.853Z,99268.80
2024-02-16T23:15:47.486Z,99268.00
2024-02-16T23:18:43.876Z,99264.60
2024-02-16T23:21:37.446Z,99265.60
2024-02-16T23:24:30.977Z,99267.80
2024-02-16T23:27:24.596Z,99268.20
2024-02-16T23:30:20.107Z,99271.20
2024-02-16T23:33:14.591Z,99263.80
2024-02-16T23:36:09.387Z,99263.00
2024-02-16T23:39:02.914Z,99262.20
2024-02-16T23:41:56.482Z,99261.40
2024-02-16T23:44:49.870Z,99266.40
2024-02-16T23:47:45.241Z,99264.80
2024-02-16T23:50:39.072Z,99257.80
2024-02-16T23:53:32.214Z,99254.60
2024-02-16T23:56:28.463Z,99253.80
2024-02-16T23:59:22.449Z,99257.20
